sensor_id;sensor_type;location;lat;lon;timestamp;P1;durP1;ratioP1;P2;durP2;ratioP2
8632;SDS011;4354;49.832;10.746;2023-04-15T00:00:55;5.50;;;3.80;;
8632;SDS011;4354;49.832;10.746;2023-04-15T00:03:23;4.17;;;3.70;;
8632;SDS011;4354;49.832;10.746;2023-04-15T00:05:51;5.60;;;3.77;;
8632;SDS011;4354;49.832;10.746;2023-04-15T00:08:17;4.20;;;3.80;;
8632;SDS011;4354;49.832;10.746;2023-04-15T00:10:45;6.13;;;4.03;;
8632;SDS011;4354;49.832;10.746;2023-04-15T00:13:12;4.47;;;3.73;;
8632;SDS011;4354;49.832;10.746;2023-04-15T00:15:39;4.87;;;3.80;;
8632;SDS011;4354;49.832;10.746;2023-04-15T00:18:06;5.30;;;4.00;;
8632;SDS011;4354;49.832;10.746;2023-04-15T00:20:33;5.43;;;3.77;;
8632;SDS011;4354;49.832;10.746;2023-04-15T00:23:01;4.70;;;3.37;;
8632;SDS011;4354;49.832;10.746;2023-04-15T00:25:29;4.67;;;3.73;;
8632;SDS011;4354;49.832;10.746;2023-04-15T00:27:56;4.97;;;3.73;;
8632;SDS011;4354;49.832;10.746;2023-04-15T00:30:23;4.30;;;3.63;;
8632;SDS011;4354;49.832;10.746;2023-04-15T00:32:51;5.40;;;3.37;;
8632;SDS011;4354;49.832;10.746;2023-04-15T00:35:18;3.80;;;3.50;;
8632;SDS011;4354;49.832;10.746;2023-04-15T00:37:45;5.30;;;4.03;;
8632;SDS011;4354;49.832;10.746;2023-04-15T00:40:12;4.67;;;4.27;;
8632;SDS011;4354;49.832;10.746;2023-04-15T00:42:41;6.70;;;4.53;;
8632;SDS011;4354;49.832;10.746;2023-04-15T00:45:08;4.77;;;3.70;;
8632;SDS011;4354;49.832;10.746;2023-04-15T00:47:36;4.67;;;3.93;;
8632;SDS011;4354;49.832;10.746;2023-04-15T00:50:04;4.77;;;4.10;;
8632;SDS011;4354;49.832;10.746;2023-04-15T00:52:31;4.30;;;3.90;;
8632;SDS011;4354;49.832;10.746;2023-04-15T00:54:58;4.50;;;4.10;;
8632;SDS011;4354;49.832;10.746;2023-04-15T00:57:25;5.37;;;3.63;;
8632;SDS011;4354;49.832;10.746;2023-04-15T00:59:54;4.40;;;3.23;;
8632;SDS011;4354;49.832;10.746;2023-04-15T01:02:22;5.40;;;3.83;;
8632;SDS011;4354;49.832;10.746;2023-04-15T01:04:49;5.27;;;3.03;;
8632;SDS011;4354;49.832;10.746;2023-04-15T01:07:17;3.40;;;3.10;;
8632;SDS011;4354;49.832;10.746;2023-04-15T01:09:44;3.97;;;3.53;;
8632;SDS011;4354;49.832;10.746;2023-04-15T01:12:11;4.33;;;3.20;;
8632;SDS011;4354;49.832;10.746;2023-04-15T01:14:40;4.37;;;3.47;;
8632;SDS011;4354;49.832;10.746;2023-04-15T01:17:07;5.97;;;3.63;;
8632;SDS011;4354;49.832;10.746;2023-04-15T01:19:35;5.00;;;3.37;;
8632;SDS011;4354;49.832;10.746;2023-04-15T01:22:02;4.27;;;3.63;;
8632;SDS011;4354;49.832;10.746;2023-04-15T01:24:31;3.57;;;3.07;;
8632;SDS011;4354;49.832;10.746;2023-04-15T01:27:01;4.40;;;3.03;;
8632;SDS011;4354;49.832;10.746;2023-04-15T01:29:29;4.73;;;3.37;;
8632;SDS011;4354;49.832;10.746;2023-04-15T01:31:57;5.27;;;3.20;;
8632;SDS011;4354;49.832;10.746;2023-04-15T01:34:24;4.77;;;3.40;;
8632;SDS011;4354;49.832;10.746;2023-04-15T01:36:51;3.60;;;3.13;;
8632;SDS011;4354;49.832;10.746;2023-04-15T01:39:18;3.93;;;3.20;;
8632;SDS011;4354;49.832;10.746;2023-04-15T01:41:45;4.63;;;3.70;;
8632;SDS011;4354;49.832;10.746;2023-04-15T01:44:11;6.03;;;4.20;;
8632;SDS011;4354;49.832;10.746;2023-04-15T01:46:38;6.57;;;4.60;;
8632;SDS011;4354;49.832;10.746;2023-04-15T01:49:05;6.10;;;4.27;;
8632;SDS011;4354;49.832;10.746;2023-04-15T01:51:32;5.23;;;3.80;;
8632;SDS011;4354;49.832;10.746;2023-04-15T01:53:59;5.17;;;3.83;;
8632;SDS011;4354;49.832;10.746;2023-04-15T01:56:26;4.73;;;3.73;;
8632;SDS011;4354;49.832;10.746;2023-04-15T01:58:53;6.17;;;4.00;;
8632;SDS011;4354;49.832;10.746;2023-04-15T02:01:20;4.27;;;3.23;;
8632;SDS011;4354;49.832;10.746;2023-04-15T02:03:47;4.10;;;3.70;;
8632;SDS011;4354;49.832;10.746;2023-04-15T02:06:14;4.30;;;3.30;;
8632;SDS011;4354;49.832;10.746;2023-04-15T02:08:41;6.37;;;3.90;;
8632;SDS011;4354;49.832;10.746;2023-04-15T02:11:08;3.90;;;3.37;;
8632;SDS011;4354;49.832;10.746;2023-04-15T02:13:35;4.10;;;3.70;;
8632;SDS011;4354;49.832;10.746;2023-04-15T02:16:02;4.07;;;3.40;;
8632;SDS011;4354;49.832;10.746;2023-04-15T02:18:29;3.87;;;3.47;;
8632;SDS011;4354;49.832;10.746;2023-04-15T02:20:56;4.50;;;4.10;;
8632;SDS011;4354;49.832;10.746;2023-04-15T02:23:24;4.70;;;4.10;;
8632;SDS011;4354;49.832;10.746;2023-04-15T02:25:51;5.07;;;4.10;;
8632;SDS011;4354;49.832;10.746;2023-04-15T02:28:19;3.97;;;3.60;;
8632;SDS011;4354;49.832;10.746;2023-04-15T02:30:50;5.77;;;3.67;;
8632;SDS011;4354;49.832;10.746;2023-04-15T02:33:18;4.70;;;3.93;;
8632;SDS011;4354;49.832;10.746;2023-04-15T02:35:46;5.00;;;3.60;;
8632;SDS011;4354;49.832;10.746;2023-04-15T02:38:13;3.97;;;3.67;;
8632;SDS011;4354;49.832;10.746;2023-04-15T02:40:42;5.13;;;3.73;;
8632;SDS011;4354;49.832;10.746;2023-04-15T02:43:08;4.47;;;3.83;;
8632;SDS011;4354;49.832;10.746;2023-04-15T02:45:35;6.03;;;4.07;;
8632;SDS011;4354;49.832;10.746;2023-04-15T02:48:02;5.00;;;4.20;;
8632;SDS011;4354;49.832;10.746;2023-04-15T02:50:31;4.37;;;3.80;;
8632;SDS011;4354;49.832;10.746;2023-04-15T02:52:58;4.43;;;4.03;;
8632;SDS011;4354;49.832;10.746;2023-04-15T02:55:27;4.90;;;4.40;;
8632;SDS011;4354;49.832;10.746;2023-04-15T02:57:54;5.87;;;5.00;;
8632;SDS011;4354;49.832;10.746;2023-04-15T03:00:21;4.57;;;4.10;;
8632;SDS011;4354;49.832;10.746;2023-04-15T03:02:50;5.33;;;4.17;;
8632;SDS011;4354;49.832;10.746;2023-04-15T03:05:22;5.37;;;4.30;;
8632;SDS011;4354;49.832;10.746;2023-04-15T03:07:52;4.97;;;3.90;;
8632;SDS011;4354;49.832;10.746;2023-04-15T03:10:19;4.87;;;4.20;;
8632;SDS011;4354;49.832;10.746;2023-04-15T03:12:47;7.37;;;4.80;;
8632;SDS011;4354;49.832;10.746;2023-04-15T03:15:14;4.80;;;4.23;;
8632;SDS011;4354;49.832;10.746;2023-04-15T03:17:40;5.20;;;4.70;;
8632;SDS011;4354;49.832;10.746;2023-04-15T03:20:07;5.10;;;4.60;;
8632;SDS011;4354;49.832;10.746;2023-04-15T03:22:35;4.53;;;3.93;;
8632;SDS011;4354;49.832;10.746;2023-04-15T03:25:03;4.67;;;3.93;;
8632;SDS011;4354;49.832;10.746;2023-04-15T03:27:31;5.13;;;4.50;;
8632;SDS011;4354;49.832;10.746;2023-04-15T03:29:58;5.93;;;4.73;;
8632;SDS011;4354;49.832;10.746;2023-04-15T03:32:24;6.90;;;5.70;;
8632;SDS011;4354;49.832;10.746;2023-04-15T03:34:52;6.20;;;5.60;;
8632;SDS011;4354;49.832;10.746;2023-04-15T03:37:19;5.87;;;5.27;;
8632;SDS011;4354;49.832;10.746;2023-04-15T03:39:45;6.17;;;5.07;;
8632;SDS011;4354;49.832;10.746;2023-04-15T03:42:12;5.87;;;5.27;;
8632;SDS011;4354;49.832;10.746;2023-04-15T03:44:40;6.20;;;5.13;;
8632;SDS011;4354;49.832;10.746;2023-04-15T03:47:07;6.03;;;5.43;;
8632;SDS011;4354;49.832;10.746;2023-04-15T03:49:34;5.87;;;5.17;;
8632;SDS011;4354;49.832;10.746;2023-04-15T03:52:02;6.53;;;5.77;;
8632;SDS011;4354;49.832;10.746;2023-04-15T03:54:28;8.30;;;5.93;;
8632;SDS011;4354;49.832;10.746;2023-04-15T03:56:55;10.20;;;6.70;;
8632;SDS011;4354;49.832;10.746;2023-04-15T03:59:22;9.73;;;5.90;;
8632;SDS011;4354;49.832;10.746;2023-04-15T04:01:49;7.60;;;6.87;;
8632;SDS011;4354;49.832;10.746;2023-04-15T04:04:16;8.07;;;6.70;;
8632;SDS011;4354;49.832;10.746;2023-04-15T04:06:43;7.17;;;6.30;;
8632;SDS011;4354;49.832;10.746;2023-04-15T04:09:10;7.53;;;6.83;;
8632;SDS011;4354;49.832;10.746;2023-04-15T04:11:37;7.87;;;6.87;;
8632;SDS011;4354;49.832;10.746;2023-04-15T04:14:03;9.80;;;7.63;;
8632;SDS011;4354;49.832;10.746;2023-04-15T04:16:30;8.43;;;7.53;;
8632;SDS011;4354;49.832;10.746;2023-04-15T04:18:57;9.23;;;6.63;;
8632;SDS011;4354;49.832;10.746;2023-04-15T04:21:24;8.07;;;6.77;;
8632;SDS011;4354;49.832;10.746;2023-04-15T04:23:51;7.90;;;7.10;;
8632;SDS011;4354;49.832;10.746;2023-04-15T04:26:18;11.10;;;8.60;;
8632;SDS011;4354;49.832;10.746;2023-04-15T04:28:45;10.13;;;8.47;;
8632;SDS011;4354;49.832;10.746;2023-04-15T04:31:12;10.97;;;9.40;;
8632;SDS011;4354;49.832;10.746;2023-04-15T04:33:39;11.40;;;8.90;;
8632;SDS011;4354;49.832;10.746;2023-04-15T04:36:06;9.20;;;8.30;;
8632;SDS011;4354;49.832;10.746;2023-04-15T04:38:36;10.53;;;7.80;;
8632;SDS011;4354;49.832;10.746;2023-04-15T04:41:02;7.93;;;7.20;;
8632;SDS011;4354;49.832;10.746;2023-04-15T04:43:29;9.13;;;8.23;;
8632;SDS011;4354;49.832;10.746;2023-04-15T04:45:56;8.67;;;7.77;;
8632;SDS011;4354;49.832;10.746;2023-04-15T04:48:23;9.00;;;8.10;;
8632;SDS011;4354;49.832;10.746;2023-04-15T04:50:49;10.47;;;8.27;;
8632;SDS011;4354;49.832;10.746;2023-04-15T04:53:17;8.67;;;7.73;;
8632;SDS011;4354;49.832;10.746;2023-04-15T04:55:44;8.70;;;7.80;;
8632;SDS011;4354;49.832;10.746;2023-04-15T04:58:11;9.17;;;8.07;;
8632;SDS011;4354;49.832;10.746;2023-04-15T05:00:38;9.13;;;8.23;;
8632;SDS011;4354;49.832;10.746;2023-04-15T05:03:06;8.70;;;7.87;;
8632;SDS011;4354;49.832;10.746;2023-04-15T05:05:33;9.47;;;8.50;;
8632;SDS011;4354;49.832;10.746;2023-04-15T05:08:02;8.77;;;7.97;;
8632;SDS011;4354;49.832;10.746;2023-04-15T05:10:28;9.20;;;8.13;;
8632;SDS011;4354;49.832;10.746;2023-04-15T05:12:56;8.60;;;7.70;;
8632;SDS011;4354;49.832;10.746;2023-04-15T05:15:22;10.07;;;9.17;;
8632;SDS011;4354;49.832;10.746;2023-04-15T05:17:50;9.40;;;8.40;;
8632;SDS011;4354;49.832;10.746;2023-04-15T05:20:17;9.57;;;8.43;;
8632;SDS011;4354;49.832;10.746;2023-04-15T05:22:43;11.40;;;9.23;;
8632;SDS011;4354;49.832;10.746;2023-04-15T05:25:10;11.67;;;9.97;;
8632;SDS011;4354;49.832;10.746;2023-04-15T05:27:37;10.70;;;9.60;;
8632;SDS011;4354;49.832;10.746;2023-04-15T05:30:04;12.73;;;10.97;;
8632;SDS011;4354;49.832;10.746;2023-04-15T05:32:32;24.17;;;17.50;;
8632;SDS011;4354;49.832;10.746;2023-04-15T05:34:59;28.63;;;20.70;;
8632;SDS011;4354;49.832;10.746;2023-04-15T05:37:26;26.47;;;20.37;;
8632;SDS011;4354;49.832;10.746;2023-04-15T05:39:52;21.17;;;17.23;;
8632;SDS011;4354;49.832;10.746;2023-04-15T05:42:19;17.60;;;14.30;;
8632;SDS011;4354;49.832;10.746;2023-04-15T05:44:46;13.07;;;11.67;;
8632;SDS011;4354;49.832;10.746;2023-04-15T05:47:13;11.53;;;10.30;;
8632;SDS011;4354;49.832;10.746;2023-04-15T05:49:40;11.20;;;10.10;;
8632;SDS011;4354;49.832;10.746;2023-04-15T05:52:06;9.83;;;9.00;;
8632;SDS011;4354;49.832;10.746;2023-04-15T05:54:33;10.03;;;9.03;;
8632;SDS011;4354;49.832;10.746;2023-04-15T05:57:00;10.47;;;9.27;;
8632;SDS011;4354;49.832;10.746;2023-04-15T05:59:27;10.07;;;9.00;;
8632;SDS011;4354;49.832;10.746;2023-04-15T06:01:54;12.70;;;9.07;;
8632;SDS011;4354;49.832;10.746;2023-04-15T06:04:21;11.70;;;9.23;;
8632;SDS011;4354;49.832;10.746;2023-04-15T06:06:48;10.33;;;9.20;;
8632;SDS011;4354;49.832;10.746;2023-04-15T06:09:15;10.27;;;9.27;;
8632;SDS011;4354;49.832;10.746;2023-04-15T06:11:42;9.77;;;8.60;;
8632;SDS011;4354;49.832;10.746;2023-04-15T06:14:08;8.97;;;7.93;;
8632;SDS011;4354;49.832;10.746;2023-04-15T06:16:35;8.97;;;8.03;;
8632;SDS011;4354;49.832;10.746;2023-04-15T06:19:03;8.77;;;7.40;;
8632;SDS011;4354;49.832;10.746;2023-04-15T06:21:29;10.47;;;9.37;;
8632;SDS011;4354;49.832;10.746;2023-04-15T06:23:57;12.60;;;10.17;;
8632;SDS011;4354;49.832;10.746;2023-04-15T06:26:27;12.37;;;8.93;;
8632;SDS011;4354;49.832;10.746;2023-04-15T06:28:53;12.30;;;11.00;;
8632;SDS011;4354;49.832;10.746;2023-04-15T06:31:20;9.17;;;8.33;;
8632;SDS011;4354;49.832;10.746;2023-04-15T06:33:48;8.63;;;7.83;;
8632;SDS011;4354;49.832;10.746;2023-04-15T06:36:15;10.10;;;8.80;;
8632;SDS011;4354;49.832;10.746;2023-04-15T06:38:43;15.03;;;9.40;;
8632;SDS011;4354;49.832;10.746;2023-04-15T06:41:10;9.30;;;8.37;;
8632;SDS011;4354;49.832;10.746;2023-04-15T06:43:38;9.43;;;8.03;;
8632;SDS011;4354;49.832;10.746;2023-04-15T06:46:05;11.60;;;8.50;;
8632;SDS011;4354;49.832;10.746;2023-04-15T06:48:32;10.50;;;8.90;;
8632;SDS011;4354;49.832;10.746;2023-04-15T06:50:59;10.33;;;7.63;;
8632;SDS011;4354;49.832;10.746;2023-04-15T06:53:25;7.93;;;6.77;;
8632;SDS011;4354;49.832;10.746;2023-04-15T06:55:53;9.10;;;7.40;;
8632;SDS011;4354;49.832;10.746;2023-04-15T06:58:20;8.33;;;6.97;;
8632;SDS011;4354;49.832;10.746;2023-04-15T07:00:48;7.20;;;6.50;;
8632;SDS011;4354;49.832;10.746;2023-04-15T07:03:14;7.70;;;5.90;;
8632;SDS011;4354;49.832;10.746;2023-04-15T07:05:41;7.27;;;6.23;;
8632;SDS011;4354;49.832;10.746;2023-04-15T07:08:08;8.07;;;6.53;;
8632;SDS011;4354;49.832;10.746;2023-04-15T07:10:35;6.27;;;5.67;;
8632;SDS011;4354;49.832;10.746;2023-04-15T07:13:02;8.03;;;5.80;;
8632;SDS011;4354;49.832;10.746;2023-04-15T07:15:29;6.43;;;5.80;;
8632;SDS011;4354;49.832;10.746;2023-04-15T07:17:56;5.63;;;5.13;;
8632;SDS011;4354;49.832;10.746;2023-04-15T07:20:23;6.20;;;5.60;;
8632;SDS011;4354;49.832;10.746;2023-04-15T07:22:50;6.40;;;5.80;;
8632;SDS011;4354;49.832;10.746;2023-04-15T07:25:17;9.27;;;7.50;;
8632;SDS011;4354;49.832;10.746;2023-04-15T07:27:44;8.10;;;6.87;;
8632;SDS011;4354;49.832;10.746;2023-04-15T07:30:11;8.37;;;7.53;;
8632;SDS011;4354;49.832;10.746;2023-04-15T07:32:38;8.13;;;7.10;;
8632;SDS011;4354;49.832;10.746;2023-04-15T07:35:06;7.63;;;6.83;;
8632;SDS011;4354;49.832;10.746;2023-04-15T07:37:33;7.57;;;6.60;;
8632;SDS011;4354;49.832;10.746;2023-04-15T07:40:01;8.90;;;6.77;;
8632;SDS011;4354;49.832;10.746;2023-04-15T07:42:29;8.27;;;7.23;;
8632;SDS011;4354;49.832;10.746;2023-04-15T07:44:56;10.87;;;8.13;;
8632;SDS011;4354;49.832;10.746;2023-04-15T07:47:23;9.43;;;7.97;;
8632;SDS011;4354;49.832;10.746;2023-04-15T07:49:51;11.10;;;8.33;;
8632;SDS011;4354;49.832;10.746;2023-04-15T07:52:18;9.73;;;8.10;;
8632;SDS011;4354;49.832;10.746;2023-04-15T07:54:44;9.00;;;7.77;;
8632;SDS011;4354;49.832;10.746;2023-04-15T07:57:12;9.00;;;8.10;;
8632;SDS011;4354;49.832;10.746;2023-04-15T07:59:39;9.00;;;7.37;;
8632;SDS011;4354;49.832;10.746;2023-04-15T08:02:05;9.57;;;8.67;;
8632;SDS011;4354;49.832;10.746;2023-04-15T08:04:33;9.37;;;8.40;;
8632;SDS011;4354;49.832;10.746;2023-04-15T08:07:00;10.53;;;8.20;;
8632;SDS011;4354;49.832;10.746;2023-04-15T08:09:28;10.00;;;8.93;;
8632;SDS011;4354;49.832;10.746;2023-04-15T08:11:54;18.83;;;14.40;;
8632;SDS011;4354;49.832;10.746;2023-04-15T08:14:23;11.10;;;9.97;;
8632;SDS011;4354;49.832;10.746;2023-04-15T08:16:50;9.57;;;8.57;;
8632;SDS011;4354;49.832;10.746;2023-04-15T08:19:16;9.87;;;8.60;;
8632;SDS011;4354;49.832;10.746;2023-04-15T08:21:43;10.37;;;9.30;;
8632;SDS011;4354;49.832;10.746;2023-04-15T08:24:10;9.67;;;8.63;;
8632;SDS011;4354;49.832;10.746;2023-04-15T08:26:39;9.43;;;8.30;;
8632;SDS011;4354;49.832;10.746;2023-04-15T08:29:05;9.27;;;8.33;;
8632;SDS011;4354;49.832;10.746;2023-04-15T08:31:32;9.70;;;8.00;;
8632;SDS011;4354;49.832;10.746;2023-04-15T08:34:02;9.33;;;8.03;;
8632;SDS011;4354;49.832;10.746;2023-04-15T08:36:29;8.13;;;7.27;;
8632;SDS011;4354;49.832;10.746;2023-04-15T08:38:57;7.93;;;6.90;;
8632;SDS011;4354;49.832;10.746;2023-04-15T08:41:26;6.73;;;6.13;;
8632;SDS011;4354;49.832;10.746;2023-04-15T08:44:15;7.13;;;6.37;;
8632;SDS011;4354;49.832;10.746;2023-04-15T08:46:43;7.40;;;6.70;;
8632;SDS011;4354;49.832;10.746;2023-04-15T08:49:11;8.20;;;6.70;;
8632;SDS011;4354;49.832;10.746;2023-04-15T08:51:41;7.10;;;6.17;;
8632;SDS011;4354;49.832;10.746;2023-04-15T08:54:10;7.47;;;6.13;;
8632;SDS011;4354;49.832;10.746;2023-04-15T08:56:37;9.80;;;7.77;;
8632;SDS011;4354;49.832;10.746;2023-04-15T08:59:04;11.27;;;8.30;;
8632;SDS011;4354;49.832;10.746;2023-04-15T09:01:32;7.03;;;6.37;;
8632;SDS011;4354;49.832;10.746;2023-04-15T09:03:59;6.80;;;6.20;;
8632;SDS011;4354;49.832;10.746;2023-04-15T09:06:28;8.00;;;6.10;;
8632;SDS011;4354;49.832;10.746;2023-04-15T09:08:55;7.10;;;6.43;;
8632;SDS011;4354;49.832;10.746;2023-04-15T09:11:22;9.70;;;6.10;;
8632;SDS011;4354;49.832;10.746;2023-04-15T09:13:49;6.27;;;5.40;;
8632;SDS011;4354;49.832;10.746;2023-04-15T09:16:16;6.00;;;5.40;;
8632;SDS011;4354;49.832;10.746;2023-04-15T09:18:44;5.00;;;4.47;;
8632;SDS011;4354;49.832;10.746;2023-04-15T09:21:11;5.50;;;5.00;;
8632;SDS011;4354;49.832;10.746;2023-04-15T09:23:52;5.30;;;4.73;;
8632;SDS011;4354;49.832;10.746;2023-04-15T09:26:31;4.50;;;4.07;;
8632;SDS011;4354;49.832;10.746;2023-04-15T09:29:05;6.10;;;5.50;;
8632;SDS011;4354;49.832;10.746;2023-04-15T09:31:34;4.63;;;4.23;;
8632;SDS011;4354;49.832;10.746;2023-04-15T09:34:02;5.00;;;3.27;;
8632;SDS011;4354;49.832;10.746;2023-04-15T09:36:32;3.60;;;3.30;;
8632;SDS011;4354;49.832;10.746;2023-04-15T09:39:11;3.60;;;3.30;;
8632;SDS011;4354;49.832;10.746;2023-04-15T09:41:38;3.60;;;3.00;;
8632;SDS011;4354;49.832;10.746;2023-04-15T09:44:06;4.53;;;3.53;;
8632;SDS011;4354;49.832;10.746;2023-04-15T09:46:42;3.97;;;3.63;;
8632;SDS011;4354;49.832;10.746;2023-04-15T09:49:10;5.17;;;3.90;;
8632;SDS011;4354;49.832;10.746;2023-04-15T09:51:38;4.10;;;3.80;;
8632;SDS011;4354;49.832;10.746;2023-04-15T09:54:04;3.70;;;3.40;;
8632;SDS011;4354;49.832;10.746;2023-04-15T09:56:36;5.43;;;2.97;;
8632;SDS011;4354;49.832;10.746;2023-04-15T09:59:07;3.60;;;3.30;;
8632;SDS011;4354;49.832;10.746;2023-04-15T10:01:34;3.27;;;2.97;;
8632;SDS011;4354;49.832;10.746;2023-04-15T10:04:02;3.27;;;2.97;;
8632;SDS011;4354;49.832;10.746;2023-04-15T10:06:30;3.40;;;3.10;;
8632;SDS011;4354;49.832;10.746;2023-04-15T10:08:57;3.67;;;3.23;;
8632;SDS011;4354;49.832;10.746;2023-04-15T10:11:29;3.03;;;2.73;;
8632;SDS011;4354;49.832;10.746;2023-04-15T10:13:57;2.40;;;2.20;;
8632;SDS011;4354;49.832;10.746;2023-04-15T10:16:25;2.47;;;2.27;;
8632;SDS011;4354;49.832;10.746;2023-04-15T10:18:54;2.63;;;2.43;;
8632;SDS011;4354;49.832;10.746;2023-04-15T10:21:22;3.50;;;2.60;;
8632;SDS011;4354;49.832;10.746;2023-04-15T10:23:49;3.00;;;2.80;;
8632;SDS011;4354;49.832;10.746;2023-04-15T10:26:16;4.03;;;2.80;;
8632;SDS011;4354;49.832;10.746;2023-04-15T10:28:44;3.53;;;2.60;;
8632;SDS011;4354;49.832;10.746;2023-04-15T10:31:12;2.80;;;2.60;;
8632;SDS011;4354;49.832;10.746;2023-04-15T10:33:43;2.40;;;2.20;;
8632;SDS011;4354;49.832;10.746;2023-04-15T10:36:12;2.90;;;2.60;;
8632;SDS011;4354;49.832;10.746;2023-04-15T10:38:41;3.50;;;2.83;;
8632;SDS011;4354;49.832;10.746;2023-04-15T10:41:17;2.90;;;2.60;;
8632;SDS011;4354;49.832;10.746;2023-04-15T10:46:22;2.40;;;2.03;;
8632;SDS011;4354;49.832;10.746;2023-04-15T10:49:23;1.57;;;1.47;;
8632;SDS011;4354;49.832;10.746;2023-04-15T10:51:51;2.03;;;1.83;;
8632;SDS011;4354;49.832;10.746;2023-04-15T11:02:45;1.70;;;1.60;;
8632;SDS011;4354;49.832;10.746;2023-04-15T11:05:14;2.03;;;1.93;;
8632;SDS011;4354;49.832;10.746;2023-04-15T11:12:43;2.03;;;1.83;;
8632;SDS011;4354;49.832;10.746;2023-04-15T11:20:49;2.10;;;1.80;;
8632;SDS011;4354;49.832;10.746;2023-04-15T11:23:17;2.23;;;1.83;;
8632;SDS011;4354;49.832;10.746;2023-04-15T11:25:45;2.20;;;2.00;;
8632;SDS011;4354;49.832;10.746;2023-04-15T11:28:14;2.30;;;2.10;;
8632;SDS011;4354;49.832;10.746;2023-04-15T11:30:41;2.17;;;1.97;;
8632;SDS011;4354;49.832;10.746;2023-04-15T11:33:10;4.40;;;3.50;;
8632;SDS011;4354;49.832;10.746;2023-04-15T11:35:41;4.03;;;2.50;;
8632;SDS011;4354;49.832;10.746;2023-04-15T11:38:10;2.60;;;2.40;;
8632;SDS011;4354;49.832;10.746;2023-04-15T11:40:39;3.23;;;2.80;;
8632;SDS011;4354;49.832;10.746;2023-04-15T11:43:17;3.00;;;2.50;;
8632;SDS011;4354;49.832;10.746;2023-04-15T11:45:56;3.37;;;2.67;;
8632;SDS011;4354;49.832;10.746;2023-04-15T11:48:27;2.80;;;2.53;;
8632;SDS011;4354;49.832;10.746;2023-04-15T11:51:02;3.13;;;2.83;;
8632;SDS011;4354;49.832;10.746;2023-04-15T11:56:20;2.20;;;2.00;;
8632;SDS011;4354;49.832;10.746;2023-04-15T11:58:51;2.40;;;2.20;;
8632;SDS011;4354;49.832;10.746;2023-04-15T12:04:00;1.70;;;1.60;;
8632;SDS011;4354;49.832;10.746;2023-04-15T12:06:32;2.77;;;2.10;;
8632;SDS011;4354;49.832;10.746;2023-04-15T12:09:24;1.90;;;1.80;;
8632;SDS011;4354;49.832;10.746;2023-04-15T12:11:48;1.60;;;1.50;;
8632;SDS011;4354;49.832;10.746;2023-04-15T12:16:56;1.73;;;1.63;;
8632;SDS011;4354;49.832;10.746;2023-04-15T12:19:34;1.90;;;1.70;;
8632;SDS011;4354;49.832;10.746;2023-04-15T12:22:03;1.40;;;1.30;;
8632;SDS011;4354;49.832;10.746;2023-04-15T12:24:32;1.37;;;1.27;;
8632;SDS011;4354;49.832;10.746;2023-04-15T12:27:05;1.10;;;1.00;;
8632;SDS011;4354;49.832;10.746;2023-04-15T12:29:33;1.77;;;1.20;;
8632;SDS011;4354;49.832;10.746;2023-04-15T12:32:08;1.23;;;1.10;;
8632;SDS011;4354;49.832;10.746;2023-04-15T12:37:16;1.40;;;1.30;;
8632;SDS011;4354;49.832;10.746;2023-04-15T12:39:44;2.10;;;1.90;;
8632;SDS011;4354;49.832;10.746;2023-04-15T12:42:14;2.00;;;1.83;;
8632;SDS011;4354;49.832;10.746;2023-04-15T12:44:41;1.50;;;1.40;;
8632;SDS011;4354;49.832;10.746;2023-04-15T12:47:09;2.03;;;1.70;;
8632;SDS011;4354;49.832;10.746;2023-04-15T12:49:37;0.90;;;0.90;;
8632;SDS011;4354;49.832;10.746;2023-04-15T12:52:04;1.10;;;1.10;;
8632;SDS011;4354;49.832;10.746;2023-04-15T12:54:31;1.60;;;1.50;;
8632;SDS011;4354;49.832;10.746;2023-04-15T12:56:59;2.27;;;2.07;;
8632;SDS011;4354;49.832;10.746;2023-04-15T12:59:31;1.93;;;1.30;;
8632;SDS011;4354;49.832;10.746;2023-04-15T13:01:58;2.20;;;2.00;;
8632;SDS011;4354;49.832;10.746;2023-04-15T13:04:26;1.10;;;1.00;;
8632;SDS011;4354;49.832;10.746;2023-04-15T13:06:56;1.20;;;1.10;;
8632;SDS011;4354;49.832;10.746;2023-04-15T13:09:26;1.53;;;0.90;;
8632;SDS011;4354;49.832;10.746;2023-04-15T13:11:52;0.90;;;0.90;;
8632;SDS011;4354;49.832;10.746;2023-04-15T13:14:19;1.10;;;1.10;;
8632;SDS011;4354;49.832;10.746;2023-04-15T13:16:46;1.20;;;1.10;;
8632;SDS011;4354;49.832;10.746;2023-04-15T13:19:13;0.90;;;0.90;;
8632;SDS011;4354;49.832;10.746;2023-04-15T13:21:41;1.20;;;1.10;;
8632;SDS011;4354;49.832;10.746;2023-04-15T13:24:07;1.10;;;1.00;;
8632;SDS011;4354;49.832;10.746;2023-04-15T13:26:35;1.10;;;1.00;;
8632;SDS011;4354;49.832;10.746;2023-04-15T13:29:01;1.20;;;1.10;;
8632;SDS011;4354;49.832;10.746;2023-04-15T13:31:28;0.93;;;0.93;;
8632;SDS011;4354;49.832;10.746;2023-04-15T13:33:55;1.30;;;1.20;;
8632;SDS011;4354;49.832;10.746;2023-04-15T13:36:22;1.20;;;1.10;;
8632;SDS011;4354;49.832;10.746;2023-04-15T13:38:49;1.23;;;1.13;;
8632;SDS011;4354;49.832;10.746;2023-04-15T13:41:17;1.47;;;1.37;;
8632;SDS011;4354;49.832;10.746;2023-04-15T13:43:45;1.60;;;1.50;;
8632;SDS011;4354;49.832;10.746;2023-04-15T13:46:12;1.70;;;1.60;;
8632;SDS011;4354;49.832;10.746;2023-04-15T13:48:40;1.80;;;1.70;;
8632;SDS011;4354;49.832;10.746;2023-04-15T13:51:07;1.70;;;1.60;;
8632;SDS011;4354;49.832;10.746;2023-04-15T13:53:33;2.27;;;1.70;;
8632;SDS011;4354;49.832;10.746;2023-04-15T13:56:05;1.73;;;1.40;;
8632;SDS011;4354;49.832;10.746;2023-04-15T13:58:33;1.77;;;1.53;;
8632;SDS011;4354;49.832;10.746;2023-04-15T14:00:59;2.20;;;2.00;;
8632;SDS011;4354;49.832;10.746;2023-04-15T14:03:29;2.03;;;1.67;;
8632;SDS011;4354;49.832;10.746;2023-04-15T14:05:56;1.60;;;1.50;;
8632;SDS011;4354;49.832;10.746;2023-04-15T14:08:24;1.60;;;1.50;;
8632;SDS011;4354;49.832;10.746;2023-04-15T14:10:51;1.53;;;1.27;;
8632;SDS011;4354;49.832;10.746;2023-04-15T14:13:17;2.50;;;1.33;;
8632;SDS011;4354;49.832;10.746;2023-04-15T14:15:44;3.77;;;1.60;;
8632;SDS011;4354;49.832;10.746;2023-04-15T14:18:12;2.07;;;1.40;;
8632;SDS011;4354;49.832;10.746;2023-04-15T14:20:38;2.87;;;1.40;;
8632;SDS011;4354;49.832;10.746;2023-04-15T14:23:05;1.70;;;1.37;;
8632;SDS011;4354;49.832;10.746;2023-04-15T14:25:32;1.47;;;1.37;;
8632;SDS011;4354;49.832;10.746;2023-04-15T14:27:59;2.53;;;2.33;;
8632;SDS011;4354;49.832;10.746;2023-04-15T14:30:27;5.20;;;3.13;;
8632;SDS011;4354;49.832;10.746;2023-04-15T14:32:54;4.93;;;3.17;;
8632;SDS011;4354;49.832;10.746;2023-04-15T14:35:20;15.57;;;5.07;;
8632;SDS011;4354;49.832;10.746;2023-04-15T14:37:49;13.87;;;6.00;;
8632;SDS011;4354;49.832;10.746;2023-04-15T14:40:16;11.70;;;5.30;;
8632;SDS011;4354;49.832;10.746;2023-04-15T14:42:43;11.50;;;6.63;;
8632;SDS011;4354;49.832;10.746;2023-04-15T14:45:11;5.53;;;3.50;;
8632;SDS011;4354;49.832;10.746;2023-04-15T14:47:38;3.27;;;2.23;;
8632;SDS011;4354;49.832;10.746;2023-04-15T14:50:05;7.47;;;3.83;;
8632;SDS011;4354;49.832;10.746;2023-04-15T14:52:32;9.13;;;5.47;;
8632;SDS011;4354;49.832;10.746;2023-04-15T14:55:10;4.60;;;3.23;;
8632;SDS011;4354;49.832;10.746;2023-04-15T14:57:38;4.13;;;2.33;;
8632;SDS011;4354;49.832;10.746;2023-04-15T15:00:06;6.50;;;4.00;;
8632;SDS011;4354;49.832;10.746;2023-04-15T15:02:35;7.00;;;5.50;;
8632;SDS011;4354;49.832;10.746;2023-04-15T15:05:06;3.37;;;3.07;;
8632;SDS011;4354;49.832;10.746;2023-04-15T15:07:35;4.10;;;2.67;;
8632;SDS011;4354;49.832;10.746;2023-04-15T15:10:03;2.40;;;1.70;;
8632;SDS011;4354;49.832;10.746;2023-04-15T15:12:31;2.40;;;1.90;;
8632;SDS011;4354;49.832;10.746;2023-04-15T15:14:58;2.37;;;2.17;;
8632;SDS011;4354;49.832;10.746;2023-04-15T15:17:26;3.33;;;2.37;;
8632;SDS011;4354;49.832;10.746;2023-04-15T15:19:53;3.00;;;2.30;;
8632;SDS011;4354;49.832;10.746;2023-04-15T15:22:20;3.93;;;3.53;;
8632;SDS011;4354;49.832;10.746;2023-04-15T15:24:47;2.10;;;2.00;;
8632;SDS011;4354;49.832;10.746;2023-04-15T15:27:14;1.70;;;1.60;;
8632;SDS011;4354;49.832;10.746;2023-04-15T15:29:41;1.57;;;1.47;;
8632;SDS011;4354;49.832;10.746;2023-04-15T15:32:08;1.67;;;1.40;;
8632;SDS011;4354;49.832;10.746;2023-04-15T15:34:34;2.90;;;2.60;;
8632;SDS011;4354;49.832;10.746;2023-04-15T15:37:01;2.80;;;2.30;;